createdAt,value
2022-12-26T00:02:00.195Z,0.28
2022-12-26T00:04:52.329Z,0.27
2022-12-26T00:07:16.812Z,0.25
2022-12-26T00:09:45.007Z,0.24
2022-12-26T00:12:13.255Z,0.24
2022-12-26T00:14:41.459Z,0.25
2022-12-26T00:17:09.627Z,0.27
2022-12-26T00:19:38.083Z,0.28
2022-12-26T00:22:06.151Z,0.28
2022-12-26T00:24:34.815Z,0.29
2022-12-26T00:27:02.993Z,0.32
2022-12-26T00:29:31.211Z,0.32
2022-12-26T00:31:59.394Z,0.30
2022-12-26T00:34:27.561Z,0.25
2022-12-26T00:36:55.724Z,0.20
2022-12-26T00:39:23.948Z,0.17
2022-12-26T00:41:52.135Z,0.12
2022-12-26T00:44:20.317Z,0.06
2022-12-26T00:46:48.454Z,-0.01
2022-12-26T00:49:16.667Z,-0.08
2022-12-26T00:51:44.875Z,-0.12
2022-12-26T00:54:13.028Z,-0.16
2022-12-26T00:56:41.154Z,-0.15
2022-12-26T00:59:09.259Z,-0.14
2022-12-26T01:01:37.690Z,-0.13
2022-12-26T01:04:06.141Z,-0.11
2022-12-26T01:06:34.558Z,-0.08
2022-12-26T01:09:02.749Z,-0.08
2022-12-26T01:11:40.532Z,-0.07
2022-12-26T01:14:16.997Z,-0.06
2022-12-26T01:16:46.960Z,-0.06
2022-12-26T01:19:15.227Z,-0.04
2022-12-26T01:21:43.717Z,0.00
2022-12-26T01:24:13.088Z,0.02
2022-12-26T01:26:41.243Z,0.04
2022-12-26T01:29:09.696Z,0.05
2022-12-26T01:31:38.011Z,0.05
2022-12-26T01:34:06.213Z,0.07
2022-12-26T01:36:34.400Z,0.09
2022-12-26T01:39:02.550Z,0.09
2022-12-26T01:41:33.343Z,0.07
2022-12-26T01:44:23.896Z,0.05
2022-12-26T01:46:52.652Z,0.05
2022-12-26T01:49:37.620Z,0.05
2022-12-26T01:52:44.977Z,0.05
2022-12-26T01:55:17.663Z,0.05
2022-12-26T01:58:01.775Z,0.06
2022-12-26T02:00:30.021Z,0.08
2022-12-26T02:03:17.148Z,0.09
2022-12-26T02:05:46.491Z,0.11
2022-12-26T02:08:21.414Z,0.15
2022-12-26T02:11:08.031Z,0.18
2022-12-26T02:13:38.443Z,0.22
2022-12-26T02:16:10.995Z,0.28
2022-12-26T02:18:40.812Z,0.34
2022-12-26T02:21:44.140Z,0.39
2022-12-26T02:24:50.314Z,0.44
2022-12-26T02:27:59.147Z,0.49
2022-12-26T02:30:42.978Z,0.54
2022-12-26T02:33:37.953Z,0.58
2022-12-26T02:36:31.365Z,0.62
2022-12-26T02:39:43.480Z,0.68
2022-12-26T02:42:41.531Z,0.73
2022-12-26T02:46:09.036Z,0.79
2022-12-26T02:49:18.533Z,0.81
2022-12-26T02:52:14.426Z,0.86
2022-12-26T02:55:25.914Z,0.89
2022-12-26T02:58:36.885Z,0.91
2022-12-26T03:01:48.469Z,0.95
2022-12-26T03:04:39.235Z,0.97
2022-12-26T03:07:37.129Z,0.98
2022-12-26T03:10:35.297Z,1.00
2022-12-26T03:13:13.765Z,1.03
2022-12-26T03:16:20.401Z,1.07
2022-12-26T03:19:00.780Z,1.11
2022-12-26T03:21:35.804Z,1.14
2022-12-26T03:24:05.390Z,1.15
2022-12-26T03:26:43.885Z,1.18
2022-12-26T03:29:37.569Z,1.20
2022-12-26T03:32:10.418Z,1.21
2022-12-26T03:34:43.814Z,1.22
2022-12-26T03:37:51.132Z,1.22
2022-12-26T03:40:55.074Z,1.23
2022-12-26T03:44:06.205Z,1.25
2022-12-26T03:47:48.229Z,1.26
2022-12-26T03:51:15.913Z,1.29
2022-12-26T03:54:10.075Z,1.32
2022-12-26T03:57:11.551Z,1.33
2022-12-26T04:01:01.766Z,1.34
2022-12-26T04:03:51.829Z,1.34
2022-12-26T04:06:45.520Z,1.36
2022-12-26T04:09:43.234Z,1.38
2022-12-26T04:12:38.981Z,1.41
2022-12-26T04:16:04.180Z,1.42
2022-12-26T04:19:05.077Z,1.44
2022-12-26T04:22:40.201Z,1.47
2022-12-26T04:25:50.199Z,1.51
2022-12-26T04:28:41.593Z,1.52
2022-12-26T04:31:57.917Z,1.53
2022-12-26T04:35:03.598Z,1.56
2022-12-26T04:37:53.803Z,1.58
2022-12-26T04:40:47.960Z,1.61
2022-12-26T04:43:48.756Z,1.63
2022-12-26T04:46:24.775Z,1.65
2022-12-26T04:49:13.334Z,1.67
2022-12-26T04:51:41.703Z,1.68
2022-12-26T04:54:10.181Z,1.69
2022-12-26T04:56:39.038Z,1.70
2022-12-26T04:59:07.322Z,1.72
2022-12-26T05:01:54.081Z,1.74
2022-12-26T05:04:40.995Z,1.76
2022-12-26T05:07:43.748Z,1.79
2022-12-26T05:10:22.980Z,1.81
2022-12-26T05:12:52.284Z,1.82
2022-12-26T05:15:21.796Z,1.83
2022-12-26T05:18:09.224Z,1.84
2022-12-26T05:20:58.864Z,1.86
2022-12-26T05:23:47.337Z,1.87
2022-12-26T05:26:40.771Z,1.88
2022-12-26T05:29:09.246Z,1.89
2022-12-26T05:31:37.587Z,1.91
2022-12-26T05:34:10.753Z,1.92
2022-12-26T05:36:48.690Z,1.91
2022-12-26T05:39:17.160Z,1.92
2022-12-26T05:41:45.622Z,1.92
2022-12-26T05:44:13.932Z,1.93
2022-12-26T05:46:42.688Z,1.92
2022-12-26T05:49:11.184Z,1.92
2022-12-26T05:51:39.583Z,1.91
2022-12-26T05:54:07.736Z,1.91
2022-12-26T05:56:35.881Z,1.91
2022-12-26T05:59:04.048Z,1.90
2022-12-26T06:01:32.416Z,1.91
2022-12-26T06:04:01.313Z,1.93
2022-12-26T06:06:29.687Z,1.93
2022-12-26T06:08:57.940Z,1.94
2022-12-26T06:11:27.132Z,1.95
2022-12-26T06:13:56.360Z,1.96
2022-12-26T06:16:24.992Z,1.96
2022-12-26T06:18:55.534Z,1.97
2022-12-26T06:21:25.001Z,1.98
2022-12-26T06:23:53.183Z,1.99
2022-12-26T06:26:21.442Z,1.99
2022-12-26T06:28:49.533Z,2.00
2022-12-26T06:31:22.686Z,2.01
2022-12-26T06:33:58.118Z,2.03
2022-12-26T06:36:28.673Z,2.03
2022-12-26T06:38:58.183Z,2.04
2022-12-26T06:41:26.342Z,2.06
2022-12-26T06:43:56.001Z,2.08
2022-12-26T06:46:25.427Z,2.08
2022-12-26T06:48:53.724Z,2.10
2022-12-26T06:51:28.443Z,2.12
2022-12-26T06:53:56.641Z,2.14
2022-12-26T06:56:28.004Z,2.15
2022-12-26T06:59:05.634Z,2.18
2022-12-26T07:01:35.590Z,2.20
2022-12-26T07:04:04.851Z,2.23
2022-12-26T07:06:36.846Z,2.27
2022-12-26T07:09:17.108Z,2.28
2022-12-26T07:11:49.114Z,2.30
2022-12-26T07:14:17.629Z,2.32
2022-12-26T07:16:46.341Z,2.32
2022-12-26T07:19:15.592Z,2.33
2022-12-26T07:21:44.899Z,2.32
2022-12-26T07:24:19.655Z,2.34
2022-12-26T07:26:49.331Z,2.35
2022-12-26T07:29:18.272Z,2.37
2022-12-26T07:31:46.607Z,2.40
2022-12-26T07:34:14.959Z,2.40
2022-12-26T07:36:43.243Z,2.42
2022-12-26T07:39:14.379Z,2.44
2022-12-26T07:41:57.921Z,2.46
2022-12-26T07:44:28.983Z,2.49
2022-12-26T07:46:58.379Z,2.52
2022-12-26T07:49:27.221Z,2.56
2022-12-26T07:51:55.444Z,2.62
2022-12-26T07:54:23.653Z,2.66
2022-12-26T07:56:51.807Z,2.71
2022-12-26T07:59:20.073Z,2.75
2022-12-26T08:01:48.509Z,2.78
2022-12-26T08:04:16.955Z,2.81
2022-12-26T08:06:47.041Z,2.84
2022-12-26T08:09:16.661Z,2.88
2022-12-26T08:11:45.176Z,2.91
2022-12-26T08:14:16.726Z,2.93
2022-12-26T08:16:49.616Z,2.97
2022-12-26T08:19:21.286Z,3.01
2022-12-26T08:21:49.464Z,3.04
2022-12-26T08:24:17.811Z,3.09
2022-12-26T08:26:46.003Z,3.15
2022-12-26T08:29:14.196Z,3.20
2022-12-26T08:31:42.513Z,3.27
2022-12-26T08:34:10.783Z,3.33
2022-12-26T08:36:40.135Z,3.37
2022-12-26T08:39:08.599Z,3.40
2022-12-26T08:41:36.738Z,3.42
2022-12-26T08:46:53.359Z,3.50
2022-12-26T08:49:21.993Z,3.53
2022-12-26T08:51:50.196Z,3.57
2022-12-26T08:54:18.345Z,3.61
2022-12-26T08:56:46.483Z,3.64
2022-12-26T08:59:14.908Z,3.66
2022-12-26T09:01:43.235Z,3.65
2022-12-26T09:04:11.586Z,3.64
2022-12-26T09:06:40.492Z,3.65
2022-12-26T09:09:12.243Z,3.71
2022-12-26T09:11:41.832Z,3.82
2022-12-26T09:14:11.058Z,3.91
2022-12-26T09:16:50.602Z,4.01
2022-12-26T09:19:21.256Z,4.07
2022-12-26T09:22:10.694Z,4.12
2022-12-26T09:24:38.989Z,4.15
2022-12-26T09:27:07.836Z,4.18
2022-12-26T09:29:38.340Z,4.20
2022-12-26T09:32:06.736Z,4.22
2022-12-26T09:34:34.937Z,4.26
2022-12-26T09:37:03.513Z,4.28
2022-12-26T09:39:32.704Z,4.27
2022-12-26T09:42:50.155Z,4.28
2022-12-26T09:45:25.886Z,4.32
2022-12-26T09:48:11.859Z,4.34
2022-12-26T09:50:43.128Z,4.36
2022-12-26T09:53:24.331Z,4.37
2022-12-26T09:56:02.433Z,4.40
2022-12-26T09:58:32.427Z,4.44
2022-12-26T10:01:00.632Z,4.51
2022-12-26T10:03:29.924Z,4.62
2022-12-26T10:06:16.154Z,4.70
2022-12-26T10:09:41.224Z,4.80
2022-12-26T10:12:54.067Z,4.93
2022-12-26T10:15:52.362Z,5.04
2022-12-26T10:18:39.885Z,5.10
2022-12-26T10:21:49.855Z,5.13
2022-12-26T10:24:25.507Z,5.14
2022-12-26T10:27:02.201Z,5.14
2022-12-26T10:29:39.275Z,5.15
2022-12-26T10:32:31.046Z,5.16
2022-12-26T10:35:01.339Z,5.20
2022-12-26T10:37:40.989Z,5.29
2022-12-26T10:40:37.183Z,5.40
2022-12-26T10:43:32.661Z,5.53
2022-12-26T10:46:28.759Z,5.65
2022-12-26T10:48:57.155Z,5.74
2022-12-26T10:51:26.547Z,5.80
2022-12-26T10:53:55.107Z,5.86
2022-12-26T10:56:25.666Z,5.91
2022-12-26T10:59:04.166Z,5.94
2022-12-26T11:01:39.286Z,6.00
2022-12-26T11:07:12.277Z,6.10
2022-12-26T11:09:45.843Z,6.19
2022-12-26T11:12:26.101Z,6.26
2022-12-26T11:15:06.934Z,6.28
2022-12-26T11:17:44.332Z,6.33
2022-12-26T11:20:15.574Z,6.48
2022-12-26T11:22:45.640Z,6.57
2022-12-26T11:25:23.141Z,6.57
2022-12-26T11:27:59.366Z,6.54
2022-12-26T11:30:37.120Z,6.47
2022-12-26T11:33:28.279Z,6.44
2022-12-26T11:36:09.473Z,6.43
2022-12-26T11:38:57.248Z,6.41
2022-12-26T11:41:40.264Z,6.41
2022-12-26T11:44:11.623Z,6.45
2022-12-26T11:46:53.196Z,6.53
2022-12-26T11:49:34.385Z,6.64
2022-12-26T11:52:33.428Z,6.76
2022-12-26T11:55:02.078Z,6.83
2022-12-26T11:57:33.160Z,6.88
2022-12-26T12:00:22.061Z,6.89
2022-12-26T12:02:51.260Z,6.90
2022-12-26T12:05:29.044Z,6.92
2022-12-26T12:08:20.710Z,6.95
2022-12-26T12:11:01.880Z,6.94
2022-12-26T12:13:58.731Z,6.89
2022-12-26T12:16:54.860Z,6.82
2022-12-26T12:19:32.060Z,6.76
2022-12-26T12:22:21.105Z,6.69
2022-12-26T12:25:16.531Z,6.63
2022-12-26T12:28:24.163Z,6.54
2022-12-26T12:31:36.756Z,6.41
2022-12-26T12:34:21.092Z,6.33
2022-12-26T12:37:27.195Z,6.31
2022-12-26T12:40:36.346Z,6.32
2022-12-26T12:43:42.584Z,6.29
2022-12-26T12:46:44.673Z,6.25
2022-12-26T12:49:50.708Z,6.17
2022-12-26T12:52:44.139Z,6.11
2022-12-26T12:55:58.314Z,6.06
2022-12-26T12:59:06.730Z,6.01
2022-12-26T13:01:47.428Z,5.93
2022-12-26T13:04:29.217Z,5.88
2022-12-26T13:07:09.658Z,5.84
2022-12-26T13:09:54.421Z,5.83
2022-12-26T13:12:30.313Z,5.82
2022-12-26T13:15:07.683Z,5.81
2022-12-26T13:17:56.318Z,5.80
2022-12-26T13:20:46.682Z,5.79
2022-12-26T13:24:03.166Z,5.79
2022-12-26T13:26:44.052Z,5.80
2022-12-26T13:29:48.922Z,5.79
2022-12-26T13:32:29.009Z,5.80
2022-12-26T13:35:03.761Z,5.80
2022-12-26T13:37:37.787Z,5.80
2022-12-26T13:40:21.877Z,5.79
2022-12-26T13:43:38.910Z,5.80
2022-12-26T13:46:41.379Z,5.77
2022-12-26T13:49:36.083Z,5.72
2022-12-26T13:52:19.295Z,5.69
2022-12-26T13:54:47.549Z,5.67
2022-12-26T13:57:18.493Z,5.65
2022-12-26T14:00:37.391Z,5.64
2022-12-26T14:03:43.496Z,5.62
2022-12-26T14:07:09.946Z,5.61
2022-12-26T14:10:15.260Z,5.58
2022-12-26T14:13:46.895Z,5.57
2022-12-26T14:16:33.852Z,5.56
2022-12-26T14:19:02.035Z,5.56
2022-12-26T14:21:49.346Z,5.56
2022-12-26T14:25:00.157Z,5.55
2022-12-26T14:28:00.712Z,5.55
2022-12-26T14:30:41.320Z,5.54
2022-12-26T14:34:30.077Z,5.54
2022-12-26T14:37:04.097Z,5.54
2022-12-26T14:39:57.915Z,5.52
2022-12-26T14:42:45.455Z,5.51
2022-12-26T14:45:25.945Z,5.49
2022-12-26T14:47:54.882Z,5.47
2022-12-26T14:50:32.354Z,5.46
2022-12-26T14:53:24.880Z,5.45
2022-12-26T14:56:08.101Z,5.44
2022-12-26T14:58:50.304Z,5.43
2022-12-26T15:01:24.300Z,5.41
2022-12-26T15:04:20.743Z,5.40
2022-12-26T15:07:24.397Z,5.39
2022-12-26T15:10:39.411Z,5.36
2022-12-26T15:13:13.265Z,5.31
2022-12-26T15:16:27.003Z,5.27
2022-12-26T15:19:42.267Z,5.22
2022-12-26T15:22:51.117Z,5.16
2022-12-26T15:25:47.149Z,5.10
2022-12-26T15:28:55.609Z,5.05
2022-12-26T15:31:42.996Z,4.99
2022-12-26T15:34:11.243Z,4.95
2022-12-26T15:37:03.556Z,4.91
2022-12-26T15:39:50.851Z,4.87
2022-12-26T15:42:56.245Z,4.83
2022-12-26T15:45:33.462Z,4.79
2022-12-26T15:48:36.864Z,4.76
2022-12-26T15:51:53.937Z,4.73
2022-12-26T15:54:58.236Z,4.68
2022-12-26T15:57:54.632Z,4.66
2022-12-26T16:00:26.420Z,4.62
2022-12-26T16:03:26.215Z,4.59
2022-12-26T16:06:14.466Z,4.56
2022-12-26T16:09:32.305Z,4.51
2022-12-26T16:12:01.217Z,4.46
2022-12-26T16:14:31.474Z,4.43
2022-12-26T16:17:14.941Z,4.39
2022-12-26T16:19:49.213Z,4.34
2022-12-26T16:22:40.602Z,4.28
2022-12-26T16:25:10.293Z,4.20
2022-12-26T16:27:39.549Z,4.17
2022-12-26T16:30:20.713Z,4.15
2022-12-26T16:32:50.339Z,4.10
2022-12-26T16:35:39.333Z,4.06
2022-12-26T16:38:14.893Z,4.02
2022-12-26T16:40:51.551Z,3.98
2022-12-26T16:43:19.671Z,3.94
2022-12-26T16:45:54.515Z,3.88
2022-12-26T16:48:25.984Z,3.80
2022-12-26T16:51:04.833Z,3.76
2022-12-26T16:53:35.979Z,3.70
2022-12-26T16:56:31.577Z,3.66
2022-12-26T16:59:17.092Z,3.60
2022-12-26T17:01:52.491Z,3.55
2022-12-26T17:04:24.584Z,3.52
2022-12-26T17:07:09.176Z,3.49
2022-12-26T17:09:49.694Z,3.45
2022-12-26T17:12:34.090Z,3.42
2022-12-26T17:15:04.829Z,3.38
2022-12-26T17:17:37.578Z,3.34
2022-12-26T17:20:23.934Z,3.28
2022-12-26T17:22:56.968Z,3.21
2022-12-26T17:25:33.919Z,3.16
2022-12-26T17:28:07.880Z,3.13
2022-12-26T17:30:40.061Z,3.11
2022-12-26T17:33:22.498Z,3.07
2022-12-26T17:39:23.832Z,2.97
2022-12-26T17:42:01.562Z,2.93
2022-12-26T17:44:44.956Z,2.90
2022-12-26T17:47:23.425Z,2.89
2022-12-26T17:49:54.006Z,2.86
2022-12-26T17:52:27.286Z,2.83
2022-12-26T17:54:58.444Z,2.81
2022-12-26T17:57:30.046Z,2.78
2022-12-26T17:59:58.523Z,2.76
2022-12-26T18:02:28.267Z,2.76
2022-12-26T18:04:56.903Z,2.75
2022-12-26T18:07:30.983Z,2.74
2022-12-26T18:10:01.954Z,2.73
2022-12-26T18:12:30.573Z,2.72
2022-12-26T18:15:01.996Z,2.70
2022-12-26T18:17:33.540Z,2.68
2022-12-26T18:20:04.526Z,2.65
2022-12-26T18:22:32.761Z,2.63
2022-12-26T18:25:00.996Z,2.61
2022-12-26T18:27:34.054Z,2.61
2022-12-26T18:30:02.496Z,2.59
2022-12-26T18:32:33.851Z,2.57
2022-12-26T18:35:01.995Z,2.54
2022-12-26T18:37:30.839Z,2.51
2022-12-26T18:39:59.030Z,2.46
2022-12-26T18:42:27.446Z,2.45
2022-12-26T18:44:55.814Z,2.44
2022-12-26T18:47:24.102Z,2.42
2022-12-26T18:49:52.405Z,2.42
2022-12-26T18:52:20.585Z,2.40
2022-12-26T18:54:48.805Z,2.39
2022-12-26T18:57:20.594Z,2.37
2022-12-26T18:59:48.784Z,2.37
2022-12-26T19:02:19.648Z,2.36
2022-12-26T19:04:48.819Z,2.37
2022-12-26T19:07:20.515Z,2.37
2022-12-26T19:09:55.095Z,2.37
2022-12-26T19:12:24.083Z,2.37
2022-12-26T19:14:52.927Z,2.36
2022-12-26T19:17:21.134Z,2.39
2022-12-26T19:19:49.859Z,2.37
2022-12-26T19:22:18.106Z,2.35
2022-12-26T19:24:46.565Z,2.35
2022-12-26T19:27:14.686Z,2.34
2022-12-26T19:29:42.842Z,2.33
2022-12-26T19:32:11.415Z,2.33
2022-12-26T19:34:39.655Z,2.34
2022-12-26T19:37:08.047Z,2.34
2022-12-26T19:39:36.343Z,2.32
2022-12-26T19:42:04.541Z,2.31
2022-12-26T19:44:32.828Z,2.30
2022-12-26T19:47:11.810Z,2.28
2022-12-26T19:49:42.653Z,2.26
2022-12-26T19:52:11.876Z,2.26
2022-12-26T19:54:40.090Z,2.24
2022-12-26T19:57:08.314Z,2.21
2022-12-26T19:59:36.667Z,2.19
2022-12-26T20:02:04.943Z,2.19
2022-12-26T20:04:33.506Z,2.18
2022-12-26T20:07:01.740Z,2.16
2022-12-26T20:09:30.204Z,2.15
2022-12-26T20:11:58.389Z,2.15
2022-12-26T20:14:28.094Z,2.14
2022-12-26T20:17:07.795Z,2.10
2022-12-26T20:19:36.709Z,2.08
2022-12-26T20:22:07.359Z,2.05
2022-12-26T20:24:36.245Z,2.04
2022-12-26T20:27:04.620Z,2.03
2022-12-26T20:29:32.892Z,2.03
2022-12-26T20:32:01.123Z,2.00
2022-12-26T20:34:30.213Z,1.99
2022-12-26T20:36:58.415Z,1.99
2022-12-26T20:39:27.297Z,2.01
2022-12-26T20:41:55.489Z,2.04
2022-12-26T20:44:24.677Z,2.09
2022-12-26T20:46:53.173Z,2.10
2022-12-26T20:49:21.473Z,2.12
2022-12-26T20:51:49.607Z,2.12
2022-12-26T20:54:18.126Z,2.10
2022-12-26T20:56:46.333Z,2.08
2022-12-26T20:59:14.540Z,2.07
2022-12-26T21:01:43.131Z,2.04
2022-12-26T21:04:23.272Z,2.03
2022-12-26T21:06:52.485Z,2.01
2022-12-26T21:09:20.916Z,2.01
2022-12-26T21:11:49.167Z,2.00
2022-12-26T21:14:21.345Z,1.99
2022-12-26T21:16:57.321Z,1.99
2022-12-26T21:19:29.391Z,1.97
2022-12-26T21:21:58.133Z,1.96
2022-12-26T21:24:30.480Z,1.96
2022-12-26T21:26:59.299Z,1.94
2022-12-26T21:29:33.975Z,1.94
2022-12-26T21:32:03.626Z,1.93
2022-12-26T21:34:33.896Z,1.92
2022-12-26T21:37:21.231Z,1.91
2022-12-26T21:39:50.758Z,1.91
2022-12-26T21:42:19.051Z,1.90
2022-12-26T21:44:47.671Z,1.89
2022-12-26T21:47:15.886Z,1.89
2022-12-26T21:49:44.567Z,1.89
2022-12-26T21:52:12.973Z,1.91
2022-12-26T21:55:00.123Z,1.93
2022-12-26T21:57:30.671Z,1.94
2022-12-26T21:59:59.715Z,1.93
2022-12-26T22:03:24.780Z,1.94
2022-12-26T22:05:53.219Z,1.95
2022-12-26T22:08:21.617Z,1.95
2022-12-26T22:11:08.469Z,1.95
2022-12-26T22:13:42.638Z,1.94
2022-12-26T22:16:12.737Z,1.96
2022-12-26T22:18:45.050Z,1.96
2022-12-26T22:21:17.380Z,1.95
2022-12-26T22:23:45.788Z,1.92
2022-12-26T22:26:15.327Z,1.87
2022-12-26T22:28:44.732Z,1.84
2022-12-26T22:31:32.350Z,1.83
2022-12-26T22:34:06.010Z,1.85
2022-12-26T22:36:35.430Z,1.87
2022-12-26T22:39:04.151Z,1.88
2022-12-26T22:41:33.824Z,1.90
2022-12-26T22:44:02.022Z,1.94
2022-12-26T22:46:30.256Z,1.97
2022-12-26T22:48:58.610Z,2.01
2022-12-26T22:51:27.939Z,2.06
2022-12-26T22:53:58.643Z,2.10
2022-12-26T22:56:27.882Z,2.14
2022-12-26T22:59:03.084Z,2.18
2022-12-26T23:01:31.905Z,2.23
2022-12-26T23:04:01.382Z,2.26
2022-12-26T23:06:35.278Z,2.29
2022-12-26T23:09:07.067Z,2.32
2022-12-26T23:11:35.845Z,2.35
2022-12-26T23:14:07.064Z,2.37
2022-12-26T23:16:54.378Z,2.39
2022-12-26T23:20:05.383Z,2.42
2022-12-26T23:22:33.992Z,2.43
2022-12-26T23:25:02.642Z,2.44
2022-12-26T23:27:49.670Z,2.45
2022-12-26T23:30:18.051Z,2.48
2022-12-26T23:32:52.137Z,2.50
2022-12-26T23:35:22.382Z,2.53
2022-12-26T23:37:50.959Z,2.55
2022-12-26T23:40:20.961Z,2.58
2022-12-26T23:42:49.767Z,2.61
2022-12-26T23:45:17.893Z,2.63
2022-12-26T23:47:46.580Z,2.65
2022-12-26T23:50:17.282Z,2.68
2022-12-26T23:52:45.526Z,2.69
2022-12-26T23:55:13.916Z,2.69
2022-12-26T23:57:42.114Z,2.69
